Time;durP1;ratioP1;P1;durP2;ratioP2;P2;SDS_P1;SDS_P2;PMS_P1;PMS_P2;Temp;Humidity;BMP_temperature;BMP_pressure;BME280_temperature;BME280_humidity;BME280_pressure;Samples;Min_cycle;Max_cycle;Signal;HPM_P1;HPM_P2
2022/10/20 00:00:54;;;;;;;30.80;29.30;;;;;;;6.08;100.00;102570.00;5031987;28;20472;-44
2022/10/20 00:03:23;;;;;;;30.50;29.17;;;;;;;6.06;100.00;102563.16;5032228;28;20468;-42
2022/10/20 00:05:51;;;;;;;31.50;29.00;;;;;;;6.02;100.00;102559.06;5032353;28;20498;-43
2022/10/20 00:08:19;;;;;;;30.93;29.63;;;;;;;6.00;100.00;102555.69;5031881;28;20518;-44
2022/10/20 00:10:53;;;;;;;30.40;29.10;;;;;;;6.00;100.00;102551.22;5031805;28;20916;-45
2022/10/20 00:13:20;;;;;;;30.70;29.23;;;;;;;6.00;100.00;102553.03;5032250;28;20455;-44
2022/10/20 00:15:49;;;;;;;30.77;29.30;;;;;;;5.98;100.00;102555.81;5032288;28;20432;-45
2022/10/20 00:18:16;;;;;;;31.10;29.70;;;;;;;5.97;100.00;102556.75;5031709;28;21000;-44
2022/10/20 00:20:46;;;;;;;31.90;30.40;;;;;;;5.95;100.00;102564.00;5031838;28;20534;-45
2022/10/20 00:23:13;;;;;;;31.70;30.30;;;;;;;5.94;100.00;102561.47;5031919;28;20460;-44
2022/10/20 00:25:41;;;;;;;30.97;29.57;;;;;;;5.91;100.00;102557.25;5032225;28;20795;-45
2022/10/20 00:28:09;;;;;;;30.60;29.10;;;;;;;5.89;100.00;102548.59;5031616;28;20456;-43
2022/10/20 00:30:38;;;;;;;30.97;29.50;;;;;;;5.87;100.00;102547.88;5031868;28;20432;-46
2022/10/20 00:33:06;;;;;;;30.63;29.33;;;;;;;5.89;100.00;102550.38;5031679;28;20985;-45
2022/10/20 00:35:38;;;;;;;31.83;30.33;;;;;;;5.89;100.00;102545.94;5031820;28;20963;-47
2022/10/20 00:38:06;;;;;;;30.97;29.40;;;;;;;5.89;100.00;102548.59;5031588;28;20460;-44
2022/10/20 00:40:34;;;;;;;30.87;29.40;;;;;;;5.92;100.00;102551.00;5031843;28;20493;-43
2022/10/20 00:43:02;;;;;;;30.70;29.30;;;;;;;5.94;100.00;102553.53;5031663;28;20864;-43
2022/10/20 00:45:29;;;;;;;31.30;29.80;;;;;;;5.94;100.00;102559.66;5031849;28;20432;-45
2022/10/20 00:48:01;;;;;;;32.13;30.57;;;;;;;5.98;100.00;102550.50;5031377;28;20464;-43
2022/10/20 00:50:33;;;;;;;33.60;31.40;;;;;;;6.00;100.00;102540.63;5032097;28;20420;-44
2022/10/20 00:53:02;;;;;;;32.60;31.20;;;;;;;6.04;100.00;102544.72;5031773;28;20460;-44
2022/10/20 00:55:33;;;;;;;32.23;30.30;;;;;;;6.07;100.00;102538.31;5031910;28;20825;-45
2022/10/20 00:58:03;;;;;;;30.90;29.50;;;;;;;6.09;100.00;102531.94;5031451;28;20464;-47
2022/10/20 01:00:30;;;;;;;32.13;30.37;;;;;;;6.11;100.00;102530.03;5031612;28;20964;-43
2022/10/20 01:03:02;;;;;;;31.57;29.87;;;;;;;6.13;100.00;102530.72;5031469;28;20928;-44
2022/10/20 01:05:30;;;;;;;31.67;30.03;;;;;;;6.15;100.00;102529.78;5032006;28;20432;-44
2022/10/20 01:07:57;;;;;;;33.53;31.73;;;;;;;6.17;100.00;102525.19;5031610;28;20464;-47
2022/10/20 01:10:32;;;;;;;34.10;32.50;;;;;;;6.19;100.00;102525.88;5035049;28;20937;-44
2022/10/20 01:13:08;;;;;;;34.63;32.57;;;;;;;6.21;100.00;102516.88;5035560;28;20517;-44
2022/10/20 01:15:45;;;;;;;36.27;34.47;;;;;;;6.23;100.00;102514.94;5035713;28;20920;-44
2022/10/20 01:18:21;;;;;;;36.53;34.13;;;;;;;6.22;100.00;102501.81;5049773;22;20460;-49
2022/10/20 01:21:12;;;;;;;36.50;34.33;;;;;;;6.21;100.00;102498.34;5027409;28;20881;-49
2022/10/20 01:24:12;;;;;;;38.17;35.63;;;;;;;6.23;100.00;102496.41;5034972;28;20431;-49
2022/10/20 01:27:25;;;;;;;38.53;36.27;;;;;;;6.21;100.00;102493.03;5035162;28;20527;-49
2022/10/20 01:30:01;;;;;;;37.77;35.33;;;;;;;6.19;100.00;102473.75;5034699;28;20436;-47
2022/10/20 01:32:37;;;;;;;37.77;35.40;;;;;;;6.20;100.00;102482.56;5034997;28;20482;-49
2022/10/20 01:35:11;;;;;;;38.40;35.93;;;;;;;6.20;100.00;102485.19;5035023;28;20916;-50
2022/10/20 01:37:44;;;;;;;40.47;37.63;;;;;;;6.20;100.00;102485.19;5034525;28;20517;-49
2022/10/20 01:40:22;;;;;;;39.60;36.80;;;;;;;6.18;100.00;102477.41;5034690;28;20518;-47
2022/10/20 01:42:54;;;;;;;41.87;38.73;;;;;;;6.19;100.00;102478.22;5034615;28;20470;-47
2022/10/20 01:45:24;;;;;;;40.23;37.67;;;;;;;6.17;100.00;102478.34;5034881;28;20436;-48
2022/10/20 01:47:53;;;;;;;40.70;37.87;;;;;;;6.17;100.00;102467.75;5034303;28;20463;-50
2022/10/20 01:50:23;;;;;;;40.60;37.97;;;;;;;6.15;100.00;102456.44;5034639;28;20921;-52
2022/10/20 01:52:56;;;;;;;40.20;37.40;;;;;;;6.12;100.00;102454.88;5034284;28;20444;-49
2022/10/20 01:55:24;;;;;;;40.13;37.53;;;;;;;6.12;100.00;102456.72;5034517;28;20475;-48
2022/10/20 01:58:09;;;;;;;40.27;37.50;;;;;;;6.11;100.00;102452.38;5034142;28;20893;-47
2022/10/20 02:00:39;;;;;;;40.13;37.10;;;;;;;6.08;100.00;102429.63;5034461;28;20594;-48
2022/10/20 02:03:25;;;;;;;39.33;36.83;;;;;;;6.06;100.00;102428.88;5034134;28;20440;-49
2022/10/20 02:06:08;;;;;;;37.90;35.70;;;;;;;6.04;100.00;102435.28;5034571;28;20467;-49
2022/10/20 02:08:41;;;;;;;37.73;35.43;;;;;;;6.00;100.00;102432.03;5033972;28;20464;-49
2022/10/20 02:11:16;;;;;;;41.13;37.57;;;;;;;6.02;100.00;102439.88;5034122;28;20447;-52
2022/10/20 02:13:45;;;;;;;38.97;36.60;;;;;;;6.01;100.00;102446.13;5034243;28;20485;-49
2022/10/20 02:16:20;;;;;;;37.63;35.00;;;;;;;6.00;100.00;102439.16;5034286;28;20502;-49
2022/10/20 02:18:48;;;;;;;38.47;36.07;;;;;;;5.98;100.00;102427.84;5033575;28;20475;-47
2022/10/20 02:21:16;;;;;;;38.57;36.10;;;;;;;5.96;100.00;102432.44;5033069;28;20480;-47
2022/10/20 02:23:46;;;;;;;39.30;36.73;;;;;;;5.93;100.00;102422.94;5034029;28;20439;-51
2022/10/20 02:26:17;;;;;;;39.30;36.67;;;;;;;5.91;100.00;102422.19;5033798;28;21251;-52
2022/10/20 02:28:52;;;;;;;36.03;33.90;;;;;;;5.89;100.00;102426.78;5033540;28;20464;-48
2022/10/20 02:31:20;;;;;;;37.90;35.70;;;;;;;5.87;100.00;102423.44;5033698;28;20473;-50
2022/10/20 02:33:48;;;;;;;38.80;36.43;;;;;;;5.84;100.00;102414.88;5033947;28;20494;-48
2022/10/20 02:36:19;;;;;;;38.47;35.50;;;;;;;5.80;100.00;102416.91;5033772;28;20432;-49
2022/10/20 02:38:47;;;;;;;36.90;34.70;;;;;;;5.76;100.00;102412.84;5033227;28;20476;-49
2022/10/20 02:41:14;;;;;;;37.57;35.37;;;;;;;5.72;100.00;102410.56;5033391;28;20471;-50
2022/10/20 02:43:42;;;;;;;38.17;35.67;;;;;;;5.67;100.00;102402.16;5033795;28;20466;-47
2022/10/20 02:46:11;;;;;;;38.47;36.07;;;;;;;5.64;100.00;102405.06;5033653;28;20432;-47
2022/10/20 02:48:39;;;;;;;40.00;37.13;;;;;;;5.62;100.00;102393.75;5033035;28;20464;-49
2022/10/20 02:51:06;;;;;;;38.07;35.70;;;;;;;5.60;100.00;102388.59;5033137;28;20922;-49
2022/10/20 02:53:34;;;;;;;37.60;34.90;;;;;;;5.61;100.00;102386.78;5033667;28;20436;-47
2022/10/20 02:56:02;;;;;;;37.93;35.30;;;;;;;5.59;100.00;102378.97;5033594;28;20431;-48
2022/10/20 02:58:29;;;;;;;37.67;35.20;;;;;;;5.57;100.00;102375.59;5032968;28;20475;-48
2022/10/20 03:00:57;;;;;;;39.43;36.70;;;;;;;5.55;100.00;102375.72;5032976;28;20530;-51
2022/10/20 03:03:26;;;;;;;40.03;37.00;;;;;;;5.55;100.00;102375.72;5033430;28;20440;-51
2022/10/20 03:05:53;;;;;;;37.53;35.10;;;;;;;5.52;100.00;102380.44;5033191;28;20493;-48
2022/10/20 03:08:22;;;;;;;39.10;36.43;;;;;;;5.51;100.00;102371.66;5032726;28;20472;-47
2022/10/20 03:10:49;;;;;;;38.00;35.60;;;;;;;5.51;100.00;102366.38;5033032;28;20437;-48
2022/10/20 03:13:17;;;;;;;37.80;35.40;;;;;;;5.50;100.00;102358.53;5033051;28;20956;-50
2022/10/20 03:15:44;;;;;;;38.80;35.53;;;;;;;5.51;100.00;102361.06;5033007;28;20451;-50
2022/10/20 03:18:12;;;;;;;37.67;35.37;;;;;;;5.49;100.00;102355.06;5031859;28;20488;-47
2022/10/20 03:20:41;;;;;;;37.90;35.50;;;;;;;5.50;100.00;102363.81;5032969;28;20444;-52
2022/10/20 03:23:08;;;;;;;38.07;35.40;;;;;;;5.48;100.00;102358.69;5032935;28;20436;-49
2022/10/20 03:25:36;;;;;;;37.37;35.07;;;;;;;5.47;100.00;102353.50;5032788;28;20428;-49
2022/10/20 03:28:04;;;;;;;36.87;34.57;;;;;;;5.46;100.00;102349.19;5032411;28;20534;-52
2022/10/20 03:30:31;;;;;;;36.23;34.00;;;;;;;5.43;100.00;102349.44;5032755;28;20440;-51
2022/10/20 03:32:59;;;;;;;36.70;34.40;;;;;;;5.43;100.00;102358.22;5031789;28;20932;-48
2022/10/20 03:35:26;;;;;;;37.30;34.83;;;;;;;5.42;100.00;102343.28;5032551;28;20929;-51
2022/10/20 03:37:55;;;;;;;38.00;35.70;;;;;;;5.40;100.00;102349.69;5032208;28;20522;-52
2022/10/20 03:40:23;;;;;;;37.23;35.10;;;;;;;5.41;100.00;102346.03;5032491;28;20467;-48
2022/10/20 03:42:50;;;;;;;37.77;35.50;;;;;;;5.40;100.00;102337.31;5032282;28;20880;-51
2022/10/20 03:45:18;;;;;;;37.77;35.20;;;;;;;5.39;100.00;102346.19;5032507;28;20440;-49
2022/10/20 03:47:46;;;;;;;38.00;35.30;;;;;;;5.38;100.00;102341.84;5032147;28;20566;-47
2022/10/20 03:50:13;;;;;;;37.20;34.80;;;;;;;5.39;100.00;102334.75;5032525;28;20832;-49
2022/10/20 03:52:41;;;;;;;36.10;34.10;;;;;;;5.39;100.00;102334.75;5032164;28;20698;-47
2022/10/20 03:55:10;;;;;;;37.63;35.33;;;;;;;5.38;100.00;102336.56;5032226;28;20436;-46
2022/10/20 03:57:37;;;;;;;37.80;35.50;;;;;;;5.39;100.00;102332.97;5029900;28;20976;-49
2022/10/20 04:00:06;;;;;;;38.03;35.63;;;;;;;5.38;100.00;102325.13;5032163;28;20436;-49
2022/10/20 04:02:36;;;;;;;38.97;36.37;;;;;;;5.38;100.00;102317.19;5031800;28;20985;-51
2022/10/20 04:05:06;;;;;;;38.07;35.67;;;;;;;5.37;100.00;102329.59;5032333;28;20432;-50
2022/10/20 04:07:33;;;;;;;37.30;34.93;;;;;;;5.38;100.00;102325.97;5031574;28;20448;-51
2022/10/20 04:10:02;;;;;;;37.07;35.00;;;;;;;5.38;100.00;102314.56;5032099;28;20432;-48
2022/10/20 04:12:31;;;;;;;37.43;35.33;;;;;;;5.37;100.00;102324.31;5031929;28;20842;-53
2022/10/20 04:14:59;;;;;;;36.93;34.93;;;;;;;5.36;100.00;102322.63;5032162;28;20809;-49
2022/10/20 04:17:27;;;;;;;38.60;36.17;;;;;;;5.37;100.00;102319.03;5031811;28;20526;-51
2022/10/20 04:19:55;;;;;;;37.87;35.67;;;;;;;5.35;100.00;102318.28;5031608;28;20444;-50
2022/10/20 04:22:23;;;;;;;37.97;35.70;;;;;;;5.36;100.00;102314.69;5031518;28;20522;-48
2022/10/20 04:24:51;;;;;;;37.37;35.27;;;;;;;5.36;100.00;102319.13;5031959;28;20467;-51
2022/10/20 04:27:18;;;;;;;39.33;36.80;;;;;;;5.38;100.00;102317.19;5031767;28;20452;-50
2022/10/20 04:29:48;;;;;;;38.20;35.43;;;;;;;5.36;100.00;102309.41;5031457;28;20522;-51
2022/10/20 04:32:16;;;;;;;36.97;34.97;;;;;;;5.35;100.00;102301.56;5031782;28;20551;-49
2022/10/20 04:34:44;;;;;;;35.93;33.93;;;;;;;5.33;100.00;102303.50;5031739;28;20470;-48
2022/10/20 04:37:11;;;;;;;34.57;32.60;;;;;;;5.32;100.00;102305.31;5031731;28;20452;-49
2022/10/20 04:39:39;;;;;;;37.03;35.00;;;;;;;5.31;100.00;102298.38;5031377;28;20479;-49
2022/10/20 04:42:06;;;;;;;35.50;33.47;;;;;;;5.32;100.00;102307.09;5031553;28;20868;-52
2022/10/20 04:44:34;;;;;;;36.80;34.60;;;;;;;5.32;100.00;102301.81;5033674;28;20999;-49
2022/10/20 04:47:03;;;;;;;36.57;34.53;;;;;;;5.30;100.00;102307.25;5035720;28;20456;-51
2022/10/20 04:49:30;;;;;;;37.30;35.10;;;;;;;5.30;100.00;102301.13;5035361;28;20460;-47
2022/10/20 04:51:58;;;;;;;37.13;34.80;;;;;;;5.31;100.00;102301.00;5035409;28;20485;-49
2022/10/20 04:54:28;;;;;;;37.33;35.27;;;;;;;5.32;100.00;102301.81;5035879;28;20811;-47
2022/10/20 04:56:56;;;;;;;36.30;34.40;;;;;;;5.32;100.00;102300.03;5035716;28;20444;-49
2022/10/20 04:59:24;;;;;;;37.40;35.17;;;;;;;5.28;100.00;102295.97;5035019;28;20452;-51
2022/10/20 05:01:51;;;;;;;37.83;35.50;;;;;;;5.27;100.00;102294.28;5035376;28;20561;-51
2022/10/20 05:04:20;;;;;;;37.10;35.10;;;;;;;5.27;100.00;102294.28;5035562;28;20440;-51
2022/10/20 05:06:49;;;;;;;37.57;35.40;;;;;;;5.26;100.00;102283.81;5035592;28;20483;-49
2022/10/20 05:09:16;;;;;;;36.90;34.80;;;;;;;5.24;100.00;102289.22;5035075;28;21050;-52
2022/10/20 05:11:44;;;;;;;35.97;33.77;;;;;;;5.22;100.00;102279.75;5035197;28;20828;-49
2022/10/20 05:14:11;;;;;;;36.17;34.00;;;;;;;5.20;100.00;102281.66;5035233;28;21301;-49
2022/10/20 05:16:39;;;;;;;35.60;33.60;;;;;;;5.19;100.00;102272.06;5035003;28;20472;-50
2022/10/20 05:19:07;;;;;;;34.50;32.47;;;;;;;5.17;100.00;102271.34;5034922;28;20466;-51
2022/10/20 05:21:35;;;;;;;35.27;33.27;;;;;;;5.19;100.00;102264.13;5034753;28;20432;-49
2022/10/20 05:24:05;;;;;;;36.90;34.37;;;;;;;5.18;100.00;102258.00;5035230;28;20540;-52
2022/10/20 05:26:36;;;;;;;35.10;32.83;;;;;;;5.18;100.00;102251.84;5035233;28;20456;-48
2022/10/20 05:29:05;;;;;;;35.67;33.27;;;;;;;5.19;100.00;102245.63;5034609;28;20463;-49
2022/10/20 05:31:36;;;;;;;35.73;33.63;;;;;;;5.20;100.00;102242.81;5034481;28;20439;-51
2022/10/20 05:34:03;;;;;;;37.03;34.83;;;;;;;5.20;100.00;102242.81;5034892;28;20489;-46
2022/10/20 05:36:31;;;;;;;36.07;33.93;;;;;;;5.21;100.00;102239.22;5034881;28;20482;-53
2022/10/20 05:39:00;;;;;;;37.07;34.50;;;;;;;5.23;100.00;102241.75;5034351;28;20472;-49
2022/10/20 05:41:29;;;;;;;35.57;33.57;;;;;;;5.21;100.00;102235.75;5034579;28;20432;-47
2022/10/20 05:44:04;;;;;;;37.47;34.83;;;;;;;5.21;100.00;102230.44;5034595;28;20513;-50
2022/10/20 05:46:36;;;;;;;37.33;34.87;;;;;;;5.23;100.00;102232.00;5034827;28;20853;-48
2022/10/20 05:49:04;;;;;;;37.10;34.50;;;;;;;5.24;100.00;102225.75;5034329;28;20514;-49
2022/10/20 05:51:35;;;;;;;37.53;35.13;;;;;;;5.23;100.00;102225.88;5034404;28;20828;-47
2022/10/20 05:54:04;;;;;;;38.33;35.90;;;;;;;5.24;100.00;102220.47;5034637;28;20486;-46
2022/10/20 05:56:32;;;;;;;37.07;34.83;;;;;;;5.24;100.00;102220.47;5033163;28;20460;-49
2022/10/20 05:59:00;;;;;;;36.30;34.13;;;;;;;5.26;100.00;102220.31;5034004;28;20526;-51
2022/10/20 06:01:38;;;;;;;36.90;34.60;;;;;;;5.27;100.00;102208.78;5034395;28;20844;-47
2022/10/20 06:04:07;;;;;;;36.57;34.30;;;;;;;5.28;100.00;102205.19;5034394;28;20475;-47
2022/10/20 06:06:35;;;;;;;35.47;33.27;;;;;;;5.29;100.00;102201.56;5034169;28;20969;-47
2022/10/20 06:09:06;;;;;;;35.67;33.40;;;;;;;5.32;100.00;102191.56;5033739;28;20460;-48
2022/10/20 06:11:34;;;;;;;35.23;33.13;;;;;;;5.35;100.00;102186.03;5034061;28;20432;-49
2022/10/20 06:14:07;;;;;;;35.67;33.43;;;;;;;5.37;100.00;102191.22;5034435;28;20478;-47
2022/10/20 06:16:34;;;;;;;35.47;33.37;;;;;;;5.40;100.00;102190.94;5033988;28;20483;-53
2022/10/20 06:19:02;;;;;;;35.83;33.63;;;;;;;5.46;100.00;102187.78;5033862;28;20890;-52
2022/10/20 06:21:32;;;;;;;35.23;33.33;;;;;;;5.51;100.00;102185.59;5033391;28;20987;-50
2022/10/20 06:24:00;;;;;;;35.87;33.40;;;;;;;5.55;100.00;102194.97;5034164;28;20897;-51
2022/10/20 06:26:31;;;;;;;35.40;33.20;;;;;;;5.59;100.00;102183.13;5034007;28;20436;-51
2022/10/20 06:29:00;;;;;;;35.40;33.40;;;;;;;5.66;100.00;102178.16;5033403;28;20518;-48
2022/10/20 06:31:33;;;;;;;35.40;33.30;;;;;;;5.70;100.00;102180.44;5033623;28;20942;-50
2022/10/20 06:34:01;;;;;;;35.60;33.50;;;;;;;5.75;100.00;102178.22;5033599;28;20436;-55
2022/10/20 06:36:28;;;;;;;36.53;34.03;;;;;;;5.77;100.00;102178.09;5033796;28;20471;-50
2022/10/20 06:39:00;;;;;;;35.23;33.13;;;;;;;5.79;100.00;102173.53;5033285;28;20468;-51
2022/10/20 06:41:29;;;;;;;35.60;33.40;;;;;;;5.86;100.00;102178.19;5033728;28;20424;-51
2022/10/20 06:43:58;;;;;;;35.63;33.43;;;;;;;5.92;100.00;102182.94;5033609;28;20533;-51
2022/10/20 06:46:27;;;;;;;37.03;34.73;;;;;;;5.99;100.00;102189.41;5033707;28;20432;-48
2022/10/20 06:48:55;;;;;;;35.17;33.03;;;;;;;6.04;100.00;102199.59;5033315;28;20472;-52
2022/10/20 06:51:26;;;;;;;36.30;34.20;;;;;;;6.09;100.00;102186.81;5033392;28;20457;-46
2022/10/20 06:53:53;;;;;;;36.90;34.43;;;;;;;6.20;100.00;102181.41;5032392;28;20444;-48
2022/10/20 06:56:22;;;;;;;36.47;34.27;;;;;;;6.36;100.00;102183.56;5033391;28;20433;-49
2022/10/20 06:58:53;;;;;;;36.97;34.83;;;;;;;6.58;100.00;102193.94;5033138;28;20501;-53
2022/10/20 07:01:23;;;;;;;37.13;34.37;;;;;;;6.79;100.00;102194.69;5033369;28;20732;-56
2022/10/20 07:03:52;;;;;;;37.20;34.97;;;;;;;6.98;100.00;102196.56;5033154;28;21070;-54
2022/10/20 07:06:22;;;;;;;37.13;34.93;;;;;;;7.18;100.00;102183.16;5033133;28;20527;-47
2022/10/20 07:08:52;;;;;;;37.33;34.83;;;;;;;7.38;100.00;102191.94;5032997;28;20502;-52
2022/10/20 07:11:22;;;;;;;36.73;34.50;;;;;;;7.56;100.00;102197.38;5032669;28;20494;-53
2022/10/20 07:13:52;;;;;;;38.00;35.60;;;;;;;7.67;100.00;102181.31;5033132;28;20498;-48
2022/10/20 07:16:21;;;;;;;37.73;35.47;;;;;;;7.81;100.00;102194.13;5033165;28;20471;-47
2022/10/20 07:18:49;;;;;;;39.07;36.47;;;;;;;7.84;100.00;102188.53;5032643;28;20521;-49
2022/10/20 07:21:19;;;;;;;38.57;36.27;;;;;;;7.95;100.00;102187.50;5032833;28;20841;-48
2022/10/20 07:23:48;;;;;;;39.03;36.73;;;;;;;7.96;100.00;102186.53;5013233;28;20873;-50
2022/10/20 07:26:18;;;;;;;38.37;36.20;;;;;;;8.00;100.00;102190.59;5012876;28;20445;-48
2022/10/20 07:28:48;;;;;;;38.93;36.57;;;;;;;8.06;100.00;102190.00;5012710;28;20461;-53
2022/10/20 07:31:26;;;;;;;37.87;35.70;;;;;;;8.08;100.00;102188.03;5054859;22;20898;-43
2022/10/20 07:33:57;;;;;;;38.20;36.10;;;;;;;8.09;100.00;102189.72;5040925;28;20416;-43
2022/10/20 07:36:43;;;;;;;38.70;36.60;;;;;;;8.13;100.00;102189.28;5032660;28;20901;-43
2022/10/20 07:39:12;;;;;;;38.33;36.23;;;;;;;8.08;100.00;102188.03;5032322;28;20463;-43
2022/10/20 07:41:42;;;;;;;37.73;35.73;;;;;;;8.05;100.00;102169.72;5032216;28;20456;-43
2022/10/20 07:44:10;;;;;;;36.63;34.53;;;;;;;8.03;100.00;102169.88;5032637;28;20479;-43
2022/10/20 07:46:39;;;;;;;36.93;34.83;;;;;;;8.06;100.00;102166.09;5032550;28;20432;-42
2022/10/20 07:49:06;;;;;;;37.70;35.40;;;;;;;8.12;100.00;102155.69;5031816;28;20514;-43
2022/10/20 07:51:54;;;;;;;37.83;35.83;;;;;;;8.23;100.00;102149.38;5032255;28;20850;-46
2022/10/20 07:54:22;;;;;;;38.13;35.67;;;;;;;8.30;100.00;102140.69;5032341;28;20490;-43
2022/10/20 07:56:50;;;;;;;40.17;37.87;;;;;;;8.43;100.00;102148.31;5032280;28;20851;-42
2022/10/20 07:59:18;;;;;;;39.77;37.53;;;;;;;8.51;100.00;102147.59;5032019;28;20455;-42
2022/10/20 08:01:47;;;;;;;38.63;36.43;;;;;;;8.65;100.00;102147.06;5031925;28;20868;-44
2022/10/20 08:04:15;;;;;;;39.27;37.03;;;;;;;8.79;100.00;102133.25;5032104;28;20515;-42
2022/10/20 08:06:42;;;;;;;38.63;36.53;;;;;;;8.78;100.00;102123.63;5032062;28;20495;-43
2022/10/20 08:09:10;;;;;;;39.87;37.20;;;;;;;8.92;100.00;102120.44;5031711;28;20471;-42
2022/10/20 08:11:38;;;;;;;36.43;34.33;;;;;;;8.99;100.00;102118.81;5031671;28;20525;-42
2022/10/20 08:14:05;;;;;;;38.10;36.00;;;;;;;9.06;100.00;102103.91;5031883;28;20437;-44
2022/10/20 08:16:33;;;;;;;38.90;36.40;;;;;;;9.21;100.00;102113.03;5032311;28;20432;-42
2022/10/20 08:19:12;;;;;;;36.43;34.50;;;;;;;9.29;100.00;102102.44;5031541;28;20464;-44
2022/10/20 08:21:46;;;;;;;37.67;35.40;;;;;;;9.40;100.00;102102.19;5045462;28;20446;-43
2022/10/20 08:24:13;;;;;;;37.63;35.50;;;;;;;9.41;100.00;102098.53;5051869;28;20517;-44
2022/10/20 08:26:41;;;;;;;37.93;35.83;;;;;;;9.42;100.00;102092.22;5051800;28;20439;-43
2022/10/20 08:29:08;;;;;;;36.03;34.30;;;;;;;9.55;100.00;102096.28;5051392;28;20875;-43
2022/10/20 08:31:36;;;;;;;37.13;35.33;;;;;;;9.47;100.00;102085.59;5051422;28;20595;-44
2022/10/20 08:34:04;;;;;;;36.80;35.00;;;;;;;9.56;100.00;102082.00;5051738;28;20435;-42
2022/10/20 08:36:36;;;;;;;36.30;34.43;;;;;;;9.58;100.00;102075.50;5051765;28;20435;-41
2022/10/20 08:39:04;;;;;;;37.70;35.80;;;;;;;9.72;100.00;102077.56;5051055;28;20524;-44
2022/10/20 08:41:36;;;;;;;37.53;35.63;;;;;;;9.79;100.00;102069.78;5051528;28;20455;-43
2022/10/20 08:44:32;;;;;;;36.00;33.93;;;;;;;9.78;100.00;102070.78;5051542;28;20514;-41
2022/10/20 08:47:02;;;;;;;35.83;34.13;;;;;;;9.82;100.00;102065.00;5051642;28;20483;-42
2022/10/20 08:49:33;;;;;;;34.93;33.43;;;;;;;9.93;100.00;102059.38;5051017;28;20512;-41
2022/10/20 08:52:02;;;;;;;35.10;33.37;;;;;;;9.95;100.00;102052.03;5051235;28;20451;-42
2022/10/20 08:54:34;;;;;;;36.27;34.03;;;;;;;9.97;100.00;102039.38;5051508;28;20431;-42
2022/10/20 08:57:01;;;;;;;36.47;34.77;;;;;;;10.06;100.00;102032.28;5051511;28;20431;-44
2022/10/20 08:59:33;;;;;;;35.33;33.63;;;;;;;10.10;100.00;102016.75;5051433;28;20471;-42
2022/10/20 09:02:03;;;;;;;35.10;33.47;;;;;;;10.16;100.00;102016.97;5051081;28;20905;-42
2022/10/20 09:04:36;;;;;;;34.20;32.60;;;;;;;10.13;100.00;102016.44;5051333;28;20478;-42
2022/10/20 09:07:13;;;;;;;34.40;32.80;;;;;;;10.32;100.00;102010.88;5051645;28;20439;-42
2022/10/20 09:09:41;;;;;;;33.57;31.83;;;;;;;10.38;100.00;102008.38;5051022;28;20516;-44
2022/10/20 09:12:13;;;;;;;36.50;34.50;;;;;;;10.76;100.00;102009.56;5050930;28;20509;-44
2022/10/20 09:14:41;;;;;;;34.57;32.90;;;;;;;10.87;100.00;102016.41;5051647;28;20419;-45
2022/10/20 09:17:15;;;;;;;33.73;32.17;;;;;;;10.98;100.00;102008.91;5051489;28;20438;-42
2022/10/20 09:19:47;;;;;;;32.87;31.37;;;;;;;10.86;100.00;102004.91;5050780;28;20980;-42
2022/10/20 09:22:17;;;;;;;33.30;31.90;;;;;;;10.92;100.00;102003.38;5043538;28;20807;-42
2022/10/20 09:24:45;;;;;;;33.43;31.73;;;;;;;11.10;100.00;101991.53;5031144;28;20472;-42
2022/10/20 09:27:23;;;;;;;32.47;31.17;;;;;;;11.09;100.00;101995.19;5031561;28;20490;-44
2022/10/20 09:29:51;;;;;;;32.20;30.73;;;;;;;11.14;100.00;101988.53;5031749;28;20468;-43
2022/10/20 09:32:30;;;;;;;32.47;31.07;;;;;;;11.30;100.00;101978.63;5034699;28;21050;-42
2022/10/20 09:35:22;;;;;;;30.73;29.43;;;;;;;11.35;100.00;101978.94;5034825;28;20429;-43
2022/10/20 09:37:58;;;;;;;31.77;30.37;;;;;;;11.66;100.00;101979.00;5034501;28;20948;-44
2022/10/20 09:40:27;;;;;;;31.83;29.90;;;;;;;11.65;99.15;101980.81;5035089;28;21044;-42
2022/10/20 09:42:57;;;;;;;29.73;28.50;;;;;;;11.70;97.22;101974.19;5034580;28;20444;-43
2022/10/20 09:45:28;;;;;;;29.07;27.97;;;;;;;11.74;96.44;101972.84;5034737;28;20478;-42
2022/10/20 09:48:01;;;;;;;29.53;28.33;;;;;;;11.78;95.83;101976.81;5034189;28;20518;-42
2022/10/20 09:50:32;;;;;;;29.23;28.03;;;;;;;12.01;97.15;101983.03;5034825;28;20846;-43
2022/10/20 09:53:04;;;;;;;29.10;27.87;;;;;;;11.94;94.07;101972.22;5034597;28;20435;-42
2022/10/20 09:55:34;;;;;;;28.17;26.73;;;;;;;11.97;93.79;101971.88;5034688;28;20933;-42
2022/10/20 09:58:04;;;;;;;27.47;25.73;;;;;;;12.05;90.61;101982.50;5034181;28;20456;-42
2022/10/20 10:00:35;;;;;;;27.33;26.00;;;;;;;12.17;91.95;101964.22;5034508;28;20937;-44
2022/10/20 10:03:10;;;;;;;26.53;25.53;;;;;;;12.32;89.31;101956.25;5034624;28;20432;-43
2022/10/20 10:05:38;;;;;;;25.30;24.30;;;;;;;12.32;88.09;101949.06;5034449;28;20475;-42
2022/10/20 10:08:13;;;;;;;24.53;23.53;;;;;;;12.26;85.73;101951.63;5034133;28;20460;-42
2022/10/20 10:10:44;;;;;;;25.07;23.97;;;;;;;12.28;87.28;101939.72;5034295;28;20455;-43
2022/10/20 10:13:24;;;;;;;24.07;23.17;;;;;;;12.35;88.40;101951.38;5034521;28;20440;-42
2022/10/20 10:16:05;;;;;;;22.03;21.23;;;;;;;12.28;87.52;101952.25;5034331;28;20424;-43
2022/10/20 10:18:34;;;;;;;21.40;20.60;;;;;;;12.24;87.62;101942.94;5033840;28;20525;-43
2022/10/20 10:21:04;;;;;;;21.50;20.70;;;;;;;12.18;86.34;101939.16;5042048;28;20502;-42
2022/10/20 10:23:35;;;;;;;20.90;20.20;;;;;;;12.29;87.97;101929.88;5052231;28;20439;-42
2022/10/20 10:26:07;;;;;;;19.33;18.47;;;;;;;12.37;86.51;101935.97;5054132;28;20479;-43
2022/10/20 10:28:37;;;;;;;20.23;19.30;;;;;;;12.50;87.75;101922.00;5053651;28;20972;-42
2022/10/20 10:31:24;;;;;;;18.57;17.87;;;;;;;12.49;84.82;101910.47;5053584;28;20466;-44
2022/10/20 10:33:55;;;;;;;16.77;16.07;;;;;;;12.52;83.43;101901.25;5053771;28;20508;-42
2022/10/20 10:36:33;;;;;;;17.23;16.07;;;;;;;12.61;84.83;101887.59;5054035;28;20435;-42
2022/10/20 10:39:04;;;;;;;15.73;15.00;;;;;;;12.73;82.21;101885.31;5053649;28;20462;-42
2022/10/20 10:41:50;;;;;;;14.30;13.80;;;;;;;12.76;82.38;101885.78;5052883;28;20521;-42
2022/10/20 10:44:31;;;;;;;13.73;12.93;;;;;;;12.74;79.79;101871.75;5053859;28;20423;-42
2022/10/20 10:47:07;;;;;;;13.80;13.30;;;;;;;12.95;80.31;101876.38;5053747;28;20497;-43
2022/10/20 10:49:45;;;;;;;14.77;14.00;;;;;;;13.15;79.15;101863.28;5053186;28;20528;-42
2022/10/20 10:52:31;;;;;;;14.33;13.83;;;;;;;13.10;79.99;101868.38;5053107;28;20513;-42
2022/10/20 10:55:12;;;;;;;13.10;12.50;;;;;;;13.04;77.07;101861.91;5053686;28;20427;-42
2022/10/20 10:58:07;;;;;;;12.87;12.37;;;;;;;13.14;76.86;101861.66;5053335;28;20455;-42
2022/10/20 11:00:44;;;;;;;13.63;13.10;;;;;;;13.29;76.91;101852.56;5053207;28;20490;-43
2022/10/20 11:03:37;;;;;;;12.17;11.67;;;;;;;13.20;75.79;101839.47;5053339;28;20462;-44
2022/10/20 11:06:16;;;;;;;11.80;11.30;;;;;;;13.19;76.85;101845.84;5053549;28;20475;-42
2022/10/20 11:09:20;;;;;;;12.23;11.73;;;;;;;13.22;76.99;101829.41;5052832;28;20474;-43
2022/10/20 11:12:14;;;;;;;12.93;12.23;;;;;;;13.26;75.04;101833.38;5052830;28;20960;-44
2022/10/20 11:14:59;;;;;;;10.90;10.60;;;;;;;13.20;76.70;101826.09;5048415;28;20447;-43
2022/10/20 11:17:43;;;;;;;10.90;10.50;;;;;;;13.42;77.09;101819.75;5052939;28;20469;-42
2022/10/20 11:20:25;;;;;;;11.80;11.40;;;;;;;13.57;76.83;101809.81;5052868;28;20506;-44
2022/10/20 11:23:16;;;;;;;12.13;11.60;;;;;;;13.49;72.30;101809.94;5045589;28;20444;-42
2022/10/20 11:25:49;;;;;;;11.77;11.27;;;;;;;13.40;75.26;101795.00;5052924;28;20879;-42
2022/10/20 11:28:29;;;;;;;11.03;10.73;;;;;;;13.37;74.31;101794.53;5052558;28;20463;-42